ADDS METAR Data INFO
IDs: Format: Raw Decoded Include TAF

Data at: 0253 UTC 17 Jan 2018

KO22 170235Z AUTO 00000KT 10SM CLR 10/09 A3023 RMK AO1
KO22 170215Z AUTO 00000KT 10SM CLR 11/09 A3022 RMK AO1
KO22 170155Z AUTO 00000KT 10SM CLR 11/10 A3021 RMK AO1
KO22 170135Z AUTO 00000KT 10SM CLR 12/10 A3021 RMK AO1
KO22 170115Z AUTO 00000KT 10SM CLR 13/10 A3022 RMK AO1
KO22 170055Z AUTO 00000KT 10SM CLR 13/11 A3020 RMK AO1
KO22 170035Z AUTO 00000KT 10SM CLR 14/11 A3021 RMK AO1
KO22 170015Z AUTO 22003KT 10SM CLR 15/10 A3023 RMK AO1
KO22 162355Z AUTO 00000KT 10SM CLR 16/08 A3021 RMK AO1
KO22 162335Z AUTO 00000KT 10SM CLR 16/07 A3021 RMK AO1
KO22 162315Z AUTO 23003KT 10SM CLR 17/07 A3021 RMK AO1
KO22 162255Z AUTO 23003KT 10SM CLR 17/07 A3022 RMK AO1
KO22 162235Z AUTO 00000KT 10SM CLR 17/07 A3022 RMK AO1
KO22 162215Z AUTO 21003KT 10SM CLR 17/07 A3022 RMK AO1
KO22 162155Z AUTO 22005KT 10SM CLR 17/05 A3022 RMK AO1
KO22 162135Z AUTO 22006KT 10SM CLR 18/05 A3022 RMK AO1
KO22 162115Z AUTO 00000KT 10SM CLR 18/04 A3022 RMK AO1
KO22 162055Z AUTO 24004KT 10SM CLR 18/05 A3023 RMK AO1
KO22 162035Z AUTO 00000KT 10SM CLR 18/05 A3023 RMK AO1
KO22 162015Z AUTO 00000KT 10SM CLR 18/05 A3024 RMK AO1
KO22 161955Z AUTO 24003KT 10SM FEW070 18/04 A3025 RMK AO1
KO22 161935Z AUTO 00000KT 10SM CLR 17/03 A3025 RMK AO1
KO22 161915Z AUTO 00000KT 10SM CLR 17/04 A3026 RMK AO1
KO22 161855Z AUTO 00000KT 10SM CLR 17/04 A3026 RMK AO1
KO22 161835Z AUTO 00000KT 10SM CLR 17/03 A3026 RMK AO1
KO22 161815Z AUTO 24003KT 10SM CLR 17/05 A3027 RMK AO1
KO22 161755Z AUTO 00000KT 10SM CLR 15/04 A3026 RMK AO1
KO22 161735Z AUTO 00000KT 10SM FEW095 14/06 A3025 RMK AO1
KO22 161715Z AUTO 00000KT 10SM OVC095 13/07 A3026 RMK AO1
KO22 161655Z AUTO 00000KT 10SM OVC095 11/07 A3026 RMK AO1
KO22 161635Z AUTO 00000KT 10SM BKN095 10/07 A3025 RMK AO1
KO22 161615Z AUTO 00000KT 10SM FEW095 09/06 A3021 RMK AO1
KO22 161555Z AUTO 00000KT 10SM CLR 08/05 A3020 RMK AO1
KO22 161535Z AUTO 00000KT 10SM SCT095 08/05 A3019 RMK AO1
KO22 161515Z AUTO 02003KT 10SM FEW070 SCT075 OVC095 09/05 A3020 RMK AO1
KO22 161455Z AUTO 02003KT 10SM FEW070 OVC090 09/05 A3021 RMK AO1
KO22 161435Z AUTO 36004KT 10SM FEW060 OVC090 09/05 A3022 RMK AO1
KO22 161415Z AUTO 00000KT 10SM BKN060 BKN070 OVC090 09/05 A3023 RMK AO1
KO22 161355Z AUTO 00000KT 10SM BKN060 OVC070 09/05 A3023 RMK AO1
KO22 161335Z AUTO 02003KT 10SM SCT060 BKN070 OVC095 09/05 A3023 RMK AO1
KO22 161315Z AUTO 00000KT 10SM BKN070 OVC075 09/05 A3022 RMK AO1
KO22 161255Z AUTO 00000KT 10SM BKN070 OVC110 09/05 A3020 RMK AO1
KO22 161235Z AUTO 00000KT 10SM FEW070 SCT120 09/05 A3021 RMK AO1
KO22 161215Z AUTO 36003KT 10SM BKN070 09/05 A3021 RMK AO1
KO22 161155Z AUTO 00000KT 10SM BKN070 BKN120 08/05 A3021 RMK AO1
KO22 161135Z AUTO 00000KT 10SM BKN070 OVC120 08/05 A3020 RMK AO1
KO22 161115Z AUTO 00000KT 10SM FEW080 SCT090 BKN120 09/05 A3019 RMK AO1
KO22 161055Z AUTO 00000KT 10SM FEW080 08/05 A3021 RMK AO1
KO22 161035Z AUTO 00000KT 10SM FEW080 08/05 A3021 RMK AO1
KO22 161015Z AUTO 02003KT 10SM FEW080 08/04 A3021 RMK AO1
KO22 160955Z AUTO 02003KT 10SM FEW085 FEW120 09/04 A3021 RMK AO1
KO22 160935Z AUTO 00000KT 10SM FEW085 08/05 A3022 RMK AO1
KO22 160915Z AUTO 00000KT 10SM FEW110 08/05 A3020 RMK AO1
KO22 160855Z AUTO 00000KT 10SM SCT110 08/05 A3020 RMK AO1
KO22 160835Z AUTO 00000KT 10SM FEW120 08/05 A3019 RMK AO1
KO22 160815Z AUTO 00000KT 10SM CLR 08/05 A3018 RMK AO1
KO22 160755Z AUTO 00000KT 10SM CLR 08/04 A3016 RMK AO1
KO22 160735Z AUTO 00000KT 10SM CLR 07/04 A3017 RMK AO1
KO22 160715Z AUTO 00000KT 10SM CLR 07/05 A3017 RMK AO1
KO22 160655Z AUTO 00000KT 10SM CLR 06/04 A3017 RMK AO1
KO22 160635Z AUTO 00000KT 10SM CLR 07/05 A3018 RMK AO1
KO22 160615Z AUTO 00000KT 10SM CLR 07/05 A3018 RMK AO1
KO22 160555Z AUTO 00000KT 10SM CLR 07/05 A3018 RMK AO1
KO22 160535Z AUTO 00000KT 10SM CLR 07/05 A3018 RMK AO1
KO22 160515Z AUTO 00000KT 9SM CLR 08/05 A3019 RMK AO1
KO22 160455Z AUTO 00000KT 10SM CLR 07/05 A3018 RMK AO1
KO22 160435Z AUTO 00000KT 10SM CLR 08/05 A3016 RMK AO1
KO22 160415Z AUTO 00000KT 10SM CLR 08/05 A3016 RMK AO1
KO22 160355Z AUTO 00000KT 10SM CLR 08/05 A3016 RMK AO1
KO22 160335Z AUTO 00000KT 10SM CLR 08/05 A3015 RMK AO1
KO22 160315Z AUTO 03003KT 10SM CLR 08/05 A3014 RMK AO1
KO22 160255Z AUTO 00000KT 10SM CLR 08/05 A3014 RMK AO1
KO22 160235Z AUTO 00000KT 10SM CLR 09/07 A3013 RMK AO1
KO22 160215Z AUTO 03003KT 10SM CLR 10/07 A3012 RMK AO1
KO22 160155Z AUTO 00000KT 10SM CLR 11/08 A3011 RMK AO1
KO22 160135Z AUTO 00000KT 10SM CLR 12/09 A3011 RMK AO1
KO22 160115Z AUTO 00000KT 10SM CLR 13/09 A3012 RMK AO1
KO22 160055Z AUTO 04003KT 10SM CLR 14/10 A3012 RMK AO1
KO22 160035Z AUTO 00000KT 10SM CLR 15/09 A3012 RMK AO1
KO22 160015Z AUTO 00000KT 10SM CLR 16/09 A3012 RMK AO1
KO22 152355Z AUTO 00000KT 10SM CLR 17/10 A3013 RMK AO1
KO22 152335Z AUTO 00000KT 10SM CLR 18/09 A3014 RMK AO1
KO22 152315Z AUTO 00000KT 10SM CLR 18/08 A3014 RMK AO1
KO22 152255Z AUTO 00000KT 10SM CLR 18/08 A3015 RMK AO1
KO22 152235Z AUTO 00000KT 10SM CLR 18/08 A3014 RMK AO1
KO22 152215Z AUTO 00000KT 10SM CLR 18/08 A3014 RMK AO1
KO22 152155Z AUTO 00000KT 10SM CLR 18/07 A3014 RMK AO1
KO22 152135Z AUTO 15003KT 10SM CLR 18/05 A3014 RMK AO1
KO22 152115Z AUTO 17003KT 10SM CLR 19/05 A3015 RMK AO1
KO22 152055Z AUTO 00000KT 10SM CLR 19/02 A3014 RMK AO1
KO22 152035Z AUTO 00000KT 10SM CLR 19/05 A3015 RMK AO1
KO22 152015Z AUTO 21003KT 10SM CLR 18/05 A3015 RMK AO1
KO22 151955Z AUTO 21009KT 160V230 10SM CLR 20/03 A3015 RMK AO1
KO22 151935Z AUTO 00000KT 10SM CLR 19/06 A3015 RMK AO1
KO22 151915Z AUTO 00000KT 10SM CLR 18/07 A3015 RMK AO1
KO22 151855Z AUTO 00000KT 10SM CLR 17/09 A3017 RMK AO1
KO22 151835Z AUTO 00000KT 10SM CLR 17/05 A3018 RMK AO1
KO22 151815Z AUTO 00000KT 10SM CLR 17/05 A3017 RMK AO1
KO22 151755Z AUTO 00000KT 10SM CLR 16/08 A3017 RMK AO1
KO22 151735Z AUTO 00000KT 10SM CLR 15/07 A3017 RMK AO1
KO22 151715Z AUTO 00000KT 10SM CLR 14/07 A3017 RMK AO1
KO22 151655Z AUTO 00000KT 10SM CLR 12/07 A3017 RMK AO1
KO22 151635Z AUTO 00000KT 10SM CLR 10/06 A3016 RMK AO1
KO22 151615Z AUTO 00000KT 10SM CLR 08/04 A3016 RMK AO1
KO22 151555Z AUTO 05003KT 10SM CLR 08/04 A3016 RMK AO1
KO22 151535Z AUTO 00000KT 10SM CLR 07/03 A3017 RMK AO1
KO22 151515Z AUTO 00000KT 10SM CLR 07/03 A3016 RMK AO1
KO22 151455Z AUTO 00000KT 10SM CLR 07/03 A3016 RMK AO1